Time;durP1;ratioP1;P1;durP2;ratioP2;P2;SDS_P1;SDS_P2;PMS_P1;PMS_P2;Temp;Humidity;BMP_temperature;BMP_pressure;BME280_temperature;BME280_humidity;BME280_pressure;Samples;Min_cycle;Max_cycle;Signal;HPM_P1;HPM_P2
2023/01/16 00:04:28;;;;;;;7.00;5.20;;;;;;;3.94;92.14;99444.15;213731;1273;61317;-73
2023/01/16 00:09:21;;;;;;;6.10;5.20;;;;;;;3.92;92.12;99444.09;213887;1271;61352;-73
2023/01/16 00:14:14;;;;;;;8.00;5.40;;;;;;;3.90;92.17;99443.36;213874;1270;61253;-74
2023/01/16 00:19:07;;;;;;;5.40;4.60;;;;;;;3.88;92.24;99434.73;213833;1271;61977;-74
2023/01/16 00:24:00;;;;;;;6.80;5.60;;;;;;;3.86;92.28;99437.63;213807;1270;61767;-73
2023/01/16 00:28:54;;;;;;;7.10;5.40;;;;;;;3.84;92.39;99439.62;213734;1270;61306;-74
2023/01/16 00:33:46;;;;;;;7.20;5.90;;;;;;;3.81;92.43;99441.95;213762;1273;61295;-73
2023/01/16 00:38:39;;;;;;;8.50;5.90;;;;;;;3.79;92.28;99443.64;213940;1270;64716;-73
2023/01/16 00:43:33;;;;;;;8.20;6.10;;;;;;;3.78;92.46;99454.56;213810;1270;61305;-73
2023/01/16 00:48:26;;;;;;;9.50;5.90;;;;;;;3.75;92.30;99456.38;213826;1273;66513;-73
2023/01/16 00:53:19;;;;;;;6.80;5.00;;;;;;;3.69;92.30;99459.34;213881;1270;61372;-74
2023/01/16 00:58:12;;;;;;;9.30;6.00;;;;;;;3.65;92.60;99465.39;213850;1270;61335;-73
2023/01/16 01:03:06;;;;;;;10.00;6.10;;;;;;;3.60;92.27;99461.16;213865;1269;73524;-73
2023/01/16 01:07:58;;;;;;;7.00;6.10;;;;;;;3.55;92.57;99464.79;213896;1272;61443;-73
2023/01/16 01:12:54;;;;;;;9.80;6.60;;;;;;;3.48;92.41;99468.05;213797;1270;61274;-73
2023/01/16 01:17:47;;;;;;;8.50;6.70;;;;;;;3.43;92.77;99471.38;213793;1273;61391;-73
2023/01/16 01:22:40;;;;;;;8.40;6.10;;;;;;;3.40;92.67;99467.34;213727;1270;73987;-73
2023/01/16 01:27:33;;;;;;;6.50;5.30;;;;;;;3.36;92.61;99461.74;213827;1270;61258;-73
2023/01/16 01:32:26;;;;;;;9.10;6.50;;;;;;;3.31;92.74;99461.95;213782;1270;61298;-73
2023/01/16 01:37:18;;;;;;;7.00;5.70;;;;;;;3.26;92.79;99463.37;213808;1273;61784;-73
2023/01/16 01:47:39;;;;;;;8.20;6.80;;;;;;;3.18;92.87;99453.92;213802;1270;75916;-73
2023/01/16 01:52:33;;;;;;;9.60;7.10;;;;;;;3.15;92.77;99452.98;213778;1273;73466;-73
2023/01/16 01:57:33;;;;;;;7.60;6.30;;;;;;;3.13;92.81;99454.48;213852;1270;61279;-74
2023/01/16 02:02:32;;;;;;;7.50;6.20;;;;;;;3.11;93.13;99449.80;213744;1270;67385;-73
2023/01/16 02:07:28;;;;;;;7.70;6.00;;;;;;;3.04;92.79;99442.77;213832;1270;61282;-74
2023/01/16 02:12:20;;;;;;;7.90;6.10;;;;;;;3.00;92.97;99438.90;213727;1270;73579;-73
2023/01/16 02:22:46;;;;;;;8.60;6.60;;;;;;;2.89;92.67;99437.22;213781;1270;61242;-73
2023/01/16 02:27:54;;;;;;;;;;;;;;;2.85;92.78;99435.77;213804;1270;67942;-74
2023/01/16 02:33:13;;;;;;;11.10;7.30;;;;;;;2.77;92.64;99436.04;213780;1270;61247;-73
2023/01/16 02:38:19;;;;;;;8.30;6.40;;;;;;;2.70;92.52;99434.28;213793;1270;74442;-73
2023/01/16 02:43:30;;;;;;;8.10;6.80;;;;;;;2.62;92.89;99430.66;213790;1270;72505;-73
2023/01/16 02:48:39;;;;;;;8.50;5.90;;;;;;;2.57;93.03;99433.10;213862;1271;61253;-73
2023/01/16 02:53:56;;;;;;;8.60;6.80;;;;;;;2.53;92.85;99425.94;213900;1270;66837;-73
2023/01/16 02:58:50;;;;;;;8.80;5.80;;;;;;;2.48;92.90;99428.21;213798;1273;61419;-73
2023/01/16 03:03:55;;;;;;;10.10;6.90;;;;;;;2.41;92.69;99428.52;213827;1270;74454;-73
2023/01/16 03:09:19;;;;;;;9.50;6.80;;;;;;;2.34;92.70;99428.48;213830;1273;71580;-73
2023/01/16 03:14:19;;;;;;;8.20;6.50;;;;;;;2.27;92.55;99423.15;213772;1270;61790;-73
2023/01/16 03:19:25;;;;;;;7.70;6.90;;;;;;;2.20;92.64;99424.83;213806;1270;66931;-73
2023/01/16 03:24:43;;;;;;;9.50;6.80;;;;;;;2.15;92.76;99417.48;213835;1270;61295;-73
2023/01/16 03:29:55;;;;;;;6.80;5.70;;;;;;;2.06;92.61;99419.81;213797;1270;74337;-73
2023/01/16 03:34:56;;;;;;;6.70;5.70;;;;;;;2.01;92.41;99423.23;213801;1270;73270;-73
2023/01/16 03:39:56;;;;;;;6.80;6.10;;;;;;;1.95;92.80;99422.00;213807;1270;61215;-73
2023/01/16 03:44:54;;;;;;;6.90;5.90;;;;;;;1.93;92.58;99427.08;213818;1270;67079;-73
2023/01/16 03:49:53;;;;;;;8.50;6.30;;;;;;;1.93;93.02;99430.34;213704;1271;61444;-73
2023/01/16 03:55:04;;;;;;;8.00;6.70;;;;;;;1.94;93.09;99431.05;213873;1270;73789;-74
2023/01/16 03:59:56;;;;;;;7.20;6.50;;;;;;;1.90;92.76;99431.64;213755;1270;73442;-73
2023/01/16 04:05:06;;;;;;;8.10;6.20;;;;;;;1.87;92.96;99427.23;213741;1273;62776;-74
2023/01/16 04:10:03;;;;;;;8.20;5.40;;;;;;;1.87;93.10;99422.47;213792;1270;67652;-73
2023/01/16 04:15:01;;;;;;;7.10;6.00;;;;;;;1.80;92.54;99421.91;213884;1270;61351;-73
2023/01/16 04:19:56;;;;;;;9.20;7.30;;;;;;;1.76;92.75;99421.29;213670;1273;75706;-74
2023/01/16 04:24:50;;;;;;;8.90;6.70;;;;;;;1.72;92.66;99427.78;213764;1270;71846;-73
2023/01/16 04:29:42;;;;;;;11.80;6.00;;;;;;;1.66;92.66;99425.04;213816;1270;62853;-73
2023/01/16 04:34:35;;;;;;;8.60;6.20;;;;;;;1.60;92.42;99426.23;213809;1273;61307;-74
2023/01/16 04:39:28;;;;;;;9.60;7.20;;;;;;;1.55;92.43;99430.49;213911;1270;61832;-73
2023/01/16 04:44:21;;;;;;;6.90;5.70;;;;;;;1.50;92.58;99424.02;213890;1270;62005;-73
2023/01/16 04:49:14;;;;;;;6.70;5.80;;;;;;;1.46;92.42;99434.81;213794;1270;61319;-73
2023/01/16 04:54:08;;;;;;;9.90;7.40;;;;;;;1.41;92.71;99443.72;213927;1270;61384;-73
2023/01/16 04:59:01;;;;;;;9.30;7.10;;;;;;;1.34;92.44;99454.07;213830;1272;65815;-73
2023/01/16 05:03:54;;;;;;;8.50;6.20;;;;;;;1.30;92.32;99443.52;213772;1270;61394;-73
2023/01/16 05:08:46;;;;;;;8.60;5.90;;;;;;;1.26;92.60;99445.94;213674;1270;61340;-73
2023/01/16 05:13:39;;;;;;;9.60;6.20;;;;;;;1.20;92.59;99438.23;213758;1270;61333;-73
2023/01/16 05:18:32;;;;;;;8.40;6.60;;;;;;;1.18;92.42;99438.16;213809;1270;61281;-72
2023/01/16 05:23:25;;;;;;;10.60;7.30;;;;;;;1.19;92.74;99434.60;213835;1270;61438;-73
2023/01/16 05:28:18;;;;;;;8.20;6.50;;;;;;;1.12;92.52;99431.98;213638;1270;62515;-73
2023/01/16 05:33:11;;;;;;;8.50;6.20;;;;;;;1.03;92.33;99428.60;213718;1270;61374;-73
2023/01/16 05:38:03;;;;;;;8.50;6.20;;;;;;;0.99;92.34;99428.79;213711;1270;61348;-73
2023/01/16 05:42:56;;;;;;;7.10;6.10;;;;;;;0.94;92.32;99429.66;213728;1270;61386;-73
2023/01/16 05:47:49;;;;;;;9.00;6.50;;;;;;;0.90;92.04;99428.14;213817;1269;61249;-74
2023/01/16 05:52:42;;;;;;;9.70;6.20;;;;;;;0.86;92.14;99425.78;213693;1272;61384;-73
2023/01/16 05:57:35;;;;;;;8.20;6.40;;;;;;;0.82;92.19;99424.46;213852;1270;61383;-74
2023/01/16 06:02:28;;;;;;;9.00;6.00;;;;;;;0.77;91.84;99418.98;213806;1270;61355;-73
2023/01/16 06:07:20;;;;;;;8.80;6.50;;;;;;;0.68;91.45;99411.86;213723;1271;61961;-75
2023/01/16 06:12:16;;;;;;;8.80;6.90;;;;;;;0.64;91.71;99404.73;213776;1270;61425;-73
2023/01/16 06:17:09;;;;;;;8.00;6.30;;;;;;;0.59;91.53;99403.17;213652;1270;61370;-74
2023/01/16 06:22:02;;;;;;;10.10;6.60;;;;;;;0.55;91.61;99397.05;213755;1270;61362;-74
2023/01/16 06:26:54;;;;;;;8.80;6.20;;;;;;;0.51;91.67;99395.91;213868;1270;61309;-73
2023/01/16 06:31:47;;;;;;;7.00;5.20;;;;;;;0.47;91.39;99398.66;213832;1271;61303;-74
2023/01/16 06:36:41;;;;;;;7.00;5.90;;;;;;;0.41;90.95;99399.80;213882;1270;61320;-74
2023/01/16 06:41:34;;;;;;;7.60;5.50;;;;;;;0.36;91.24;99403.39;213844;1270;61313;-73
2023/01/16 06:46:27;;;;;;;9.10;6.80;;;;;;;0.36;91.53;99407.48;213777;1270;74603;-73
2023/01/16 06:51:20;;;;;;;11.10;7.00;;;;;;;0.39;91.14;99410.13;213844;1270;61279;-73
2023/01/16 06:56:13;;;;;;;11.30;7.40;;;;;;;0.40;91.36;99413.23;213816;1270;61390;-73
2023/01/16 07:01:06;;;;;;;10.40;7.30;;;;;;;0.41;91.18;99410.04;213662;1270;61338;-74
2023/01/16 07:05:59;;;;;;;11.60;7.10;;;;;;;0.43;91.07;99410.11;213606;1270;61284;-73
2023/01/16 07:10:52;;;;;;;11.90;8.30;;;;;;;0.48;91.25;99404.16;213677;1271;62803;-73
2023/01/16 07:26:15;;;;;;;12.60;7.00;;;;;;;0.69;91.36;99409.53;213455;1270;68079;-73
2023/01/16 07:31:09;;;;;;;12.90;8.20;;;;;;;0.78;91.01;99407.08;213411;1271;61313;-73
2023/01/16 07:36:02;;;;;;;13.90;9.50;;;;;;;0.85;90.84;99404.78;213601;1270;75322;-74
2023/01/16 07:40:56;;;;;;;10.70;8.50;;;;;;;0.95;91.29;99396.94;213243;1270;71992;-74
2023/01/16 07:45:52;;;;;;;11.30;8.30;;;;;;;1.07;91.27;99389.32;213243;1270;61429;-75
2023/01/16 07:50:53;;;;;;;15.20;10.00;;;;;;;1.23;91.08;99391.04;213424;1270;67745;-74
2023/01/16 07:55:46;;;;;;;15.10;11.10;;;;;;;1.39;91.20;99389.86;213469;1270;61267;-74
2023/01/16 08:00:39;;;;;;;13.30;10.20;;;;;;;1.54;91.04;99378.73;213662;1270;61418;-74
2023/01/16 08:05:31;;;;;;;14.50;10.30;;;;;;;1.71;91.03;99378.07;213447;1270;61406;-74
2023/01/16 08:10:25;;;;;;;12.90;10.00;;;;;;;1.85;91.22;99375.95;213534;1270;61248;-74
2023/01/16 08:15:18;;;;;;;15.40;10.90;;;;;;;1.92;91.05;99385.54;213569;1270;61350;-74
2023/01/16 08:20:11;;;;;;;13.60;10.60;;;;;;;1.98;90.94;99381.78;213514;1270;61380;-74
2023/01/16 08:25:04;;;;;;;15.40;11.00;;;;;;;2.09;90.75;99370.98;213671;1270;74614;-74
2023/01/16 08:29:57;;;;;;;12.80;10.40;;;;;;;2.23;90.88;99371.39;213380;1271;72516;-74
2023/01/16 08:34:50;;;;;;;16.10;10.80;;;;;;;2.35;90.52;99364.56;213662;1273;61379;-74
2023/01/16 08:39:42;;;;;;;12.40;10.80;;;;;;;2.48;90.48;99356.19;213620;1270;61259;-74
2023/01/16 08:54:59;;;;;;;15.60;12.50;;;;;;;2.87;89.85;99357.93;213677;1270;72000;-74
2023/01/16 08:59:52;;;;;;;18.20;12.20;;;;;;;3.02;89.91;99354.38;213806;1270;61374;-75
2023/01/16 09:04:44;;;;;;;18.70;12.70;;;;;;;3.17;89.88;99349.45;213737;1270;61368;-74
2023/01/16 09:09:40;;;;;;;16.60;11.20;;;;;;;3.30;89.84;99343.59;213829;1270;61355;-74
2023/01/16 09:14:33;;;;;;;17.70;11.60;;;;;;;3.39;89.41;99336.44;213765;1273;74385;-75
2023/01/16 09:19:26;;;;;;;18.50;13.00;;;;;;;3.45;89.40;99332.98;213601;1270;61300;-77
2023/01/16 09:24:19;;;;;;;17.10;13.80;;;;;;;3.49;89.14;99334.42;213572;1270;61400;-76
2023/01/16 09:29:11;;;;;;;16.00;12.00;;;;;;;3.54;89.10;99331.63;213691;1270;61295;-76
2023/01/16 09:34:04;;;;;;;16.70;12.40;;;;;;;3.57;88.62;99325.39;213802;1270;61777;-77
2023/01/16 09:38:57;;;;;;;17.00;11.50;;;;;;;3.58;88.50;99320.09;213820;1270;61383;-77
2023/01/16 09:43:51;;;;;;;15.00;10.90;;;;;;;3.61;88.31;99319.82;213761;1270;61371;-78
2023/01/16 09:48:53;;;;;;;14.00;11.10;;;;;;;3.69;88.63;99314.70;213794;1270;61255;-77
2023/01/16 09:59:27;;;;;;;13.00;11.20;;;;;;;3.96;88.25;99309.09;213764;1270;61458;-75
2023/01/16 10:04:22;;;;;;;18.00;11.80;;;;;;;4.04;88.04;99310.27;213780;1270;73884;-75
2023/01/16 10:09:41;;;;;;;18.80;12.50;;;;;;;4.13;87.64;99305.33;213781;1270;72909;-76
2023/01/16 10:14:59;;;;;;;16.10;11.60;;;;;;;4.17;87.63;99294.77;213772;1270;61935;-76
2023/01/16 10:20:20;;;;;;;14.90;10.70;;;;;;;4.18;86.92;99283.83;213812;1270;65776;-76
2023/01/16 10:25:23;;;;;;;15.60;11.80;;;;;;;4.18;86.92;99277.64;213837;1270;61410;-73
2023/01/16 10:30:22;;;;;;;17.30;11.50;;;;;;;4.27;87.29;99269.24;213842;1274;73206;-73
2023/01/16 10:35:23;;;;;;;17.90;12.50;;;;;;;4.34;87.23;99262.69;213719;1270;71509;-72
2023/01/16 10:40:28;;;;;;;16.70;11.80;;;;;;;4.36;87.48;99251.73;213739;1273;61371;-73
2023/01/16 10:50:37;;;;;;;15.70;11.70;;;;;;;4.27;87.37;99236.81;213708;1270;61352;-73
2023/01/16 10:55:33;;;;;;;16.00;10.90;;;;;;;4.27;87.30;99221.05;213809;1271;75690;-73
2023/01/16 11:00:32;;;;;;;15.30;11.30;;;;;;;4.24;87.14;99211.55;213817;1270;72315;-73
2023/01/16 11:05:36;;;;;;;13.70;9.40;;;;;;;4.25;87.22;99199.55;213752;1275;61333;-73
2023/01/16 11:10:29;;;;;;;13.60;9.40;;;;;;;4.20;87.43;99191.25;213765;1271;66810;-74
2023/01/16 11:20:38;;;;;;;13.20;8.70;;;;;;;4.11;87.44;99177.02;213576;1273;73443;-73
2023/01/16 11:25:32;;;;;;;10.40;8.10;;;;;;;4.05;87.49;99171.94;213813;1270;71278;-74
2023/01/16 11:30:33;;;;;;;9.90;8.00;;;;;;;4.00;87.61;99167.73;213735;1270;61987;-73
2023/01/16 11:35:32;;;;;;;11.50;7.60;;;;;;;4.01;87.72;99156.77;213779;1270;67859;-74
2023/01/16 11:40:28;;;;;;;10.10;7.90;;;;;;;4.01;87.86;99152.48;213763;1270;61399;-74
2023/01/16 11:50:37;;;;;;;11.30;9.30;;;;;;;3.93;87.23;99134.50;213706;1270;73768;-76
2023/01/16 11:55:49;;;;;;;13.00;9.10;;;;;;;3.93;87.64;99131.41;213767;1270;61297;-76
2023/01/16 12:01:09;;;;;;;10.20;8.10;;;;;;;3.98;87.59;99121.73;213808;1270;66644;-75
2023/01/16 12:06:30;;;;;;;10.50;8.10;;;;;;;4.05;87.68;99110.55;213618;1273;61294;-75
2023/01/16 12:11:44;;;;;;;10.80;8.30;;;;;;;4.06;87.24;99107.13;213783;1271;75530;-77
2023/01/16 12:17:00;;;;;;;12.30;9.20;;;;;;;4.00;87.30;99100.17;213714;1270;72198;-76
2023/01/16 12:22:19;;;;;;;11.80;9.30;;;;;;;3.95;87.13;99093.58;213665;1273;61375;-76
2023/01/16 12:27:37;;;;;;;15.70;10.20;;;;;;;3.92;87.04;99088.37;213725;1270;68445;-76
2023/01/16 12:33:09;;;;;;;12.00;8.60;;;;;;;3.91;87.09;99085.63;213699;1270;61938;-75
2023/01/16 12:38:16;;;;;;;12.90;9.10;;;;;;;3.92;87.39;99083.23;213700;1269;75784;-76
2023/01/16 12:43:40;;;;;;;13.20;9.70;;;;;;;3.88;87.34;99084.19;213723;1271;72690;-75
2023/01/16 12:48:47;;;;;;;13.70;10.10;;;;;;;3.84;87.63;99076.58;213762;1272;61405;-75
2023/01/16 12:54:00;;;;;;;15.90;10.20;;;;;;;3.78;87.53;99077.33;213697;1274;68181;-75
2023/01/16 12:59:03;;;;;;;12.10;9.20;;;;;;;3.72;87.76;99071.90;213455;1271;61404;-75
2023/01/16 13:04:15;;;;;;;14.10;11.30;;;;;;;3.69;87.75;99068.26;213613;1273;75146;-75
2023/01/16 13:09:23;;;;;;;16.60;12.30;;;;;;;3.68;87.92;99066.85;213619;1273;72567;-75
2023/01/16 13:14:19;;;;;;;16.90;12.80;;;;;;;3.66;88.25;99057.23;213307;1270;61262;-77
2023/01/16 13:19:18;;;;;;;17.70;13.30;;;;;;;3.64;88.43;99045.88;213359;1273;66237;-74
2023/01/16 13:24:18;;;;;;;21.50;15.00;;;;;;;3.66;88.44;99032.73;213579;1273;61258;-75
2023/01/16 13:29:22;;;;;;;20.50;15.40;;;;;;;3.67;88.67;99029.31;213509;1270;75751;-74
2023/01/16 13:34:23;;;;;;;22.90;15.90;;;;;;;3.67;88.55;99026.58;213659;1275;73410;-75
2023/01/16 13:39:47;;;;;;;21.90;16.00;;;;;;;3.68;88.73;99020.77;213626;1270;61203;-75
2023/01/16 13:50:07;;;;;;;22.00;17.30;;;;;;;3.70;88.69;98996.30;213598;1270;61374;-76
2023/01/16 13:55:06;;;;;;;21.40;16.20;;;;;;;3.71;89.21;98983.48;213783;1271;73902;-74
2023/01/16 14:00:02;;;;;;;26.90;19.10;;;;;;;3.75;89.08;98990.04;213792;1275;72775;-76
2023/01/16 14:05:15;;;;;;;;;;;;;;;3.79;89.11;98992.00;213805;1270;69263;-76
2023/01/16 14:10:11;;;;;;;23.60;16.70;;;;;;;3.89;89.28;98988.22;213518;1275;66105;-75
2023/01/16 14:20:37;;;;;;;24.50;18.70;;;;;;;4.08;89.18;98974.63;213554;1273;74431;-74
2023/01/16 14:25:31;;;;;;;28.80;19.50;;;;;;;4.12;89.14;98963.71;213633;1274;72678;-75
2023/01/16 14:30:33;;;;;;;31.20;19.70;;;;;;;4.07;88.97;98958.67;213345;1271;61300;-74
2023/01/16 14:35:45;;;;;;;28.80;20.50;;;;;;;3.91;88.95;98953.12;213646;1273;68078;-73
2023/01/16 14:57:12;;;;;;;29.10;20.50;;;;;;;3.14;89.64;98936.91;211564;1279;61313;-76
2023/01/16 15:02:19;;;;;;;35.20;24.20;;;;;;;3.03;90.09;98921.82;211751;1280;68012;-75
2023/01/16 15:07:16;;;;;;;30.40;22.90;;;;;;;2.92;89.81;98923.67;211859;1280;61847;-75
2023/01/16 15:12:14;;;;;;;31.30;23.10;;;;;;;2.83;90.07;98915.13;211984;1280;74440;-75
2023/01/16 15:22:43;;;;;;;28.20;20.00;;;;;;;2.69;90.26;98903.71;212015;1278;61384;-75
2023/01/16 15:27:38;;;;;;;25.40;18.50;;;;;;;2.60;90.25;98898.23;213415;1271;67120;-75
2023/01/16 15:32:31;;;;;;;23.00;17.30;;;;;;;2.55;90.25;98892.67;213603;1274;61266;-74
2023/01/16 15:37:27;;;;;;;24.60;17.20;;;;;;;2.52;90.35;98889.18;213728;1270;75757;-75
2023/01/16 15:48:13;;;;;;;21.00;16.30;;;;;;;2.40;90.28;98880.05;213759;1270;61278;-73
2023/01/16 15:53:07;;;;;;;20.40;15.20;;;;;;;2.36;90.42;98864.41;213742;1275;67059;-74
2023/01/16 15:58:03;;;;;;;22.20;16.10;;;;;;;2.32;90.07;98857.84;213668;1273;61201;-73
2023/01/16 16:03:01;;;;;;;23.60;16.40;;;;;;;2.29;90.55;98855.40;213708;1273;74468;-74
2023/01/16 16:07:56;;;;;;;22.90;17.10;;;;;;;2.29;90.76;98850.09;213857;1270;72414;-74
2023/01/16 16:12:49;;;;;;;25.00;18.30;;;;;;;2.30;90.70;98847.54;213416;1276;61281;-75
2023/01/16 16:18:00;;;;;;;23.60;18.00;;;;;;;2.33;90.56;98837.52;213505;1270;66800;-76
2023/01/16 16:22:58;;;;;;;30.60;21.00;;;;;;;2.38;90.78;98833.16;213843;1271;61305;-76
2023/01/16 16:27:51;;;;;;;25.70;17.10;;;;;;;2.47;90.98;98830.61;213822;1274;75038;-75
2023/01/16 16:32:44;;;;;;;27.30;18.80;;;;;;;2.53;91.01;98817.20;213696;1273;61154;-74
2023/01/16 16:37:44;;;;;;;30.30;20.80;;;;;;;2.60;91.36;98804.33;213807;1270;61306;-74
2023/01/16 16:42:46;;;;;;;28.70;19.90;;;;;;;2.67;91.06;98795.91;213754;1271;68223;-74
2023/01/16 16:47:41;;;;;;;26.40;19.40;;;;;;;2.73;90.99;98792.60;213820;1272;62957;-74
2023/01/16 16:52:39;;;;;;;24.30;18.20;;;;;;;2.77;91.27;98784.95;213848;1273;74533;-74
2023/01/16 16:57:44;;;;;;;26.10;19.00;;;;;;;2.81;91.15;98772.38;213559;1270;71737;-74
2023/01/16 17:02:37;;;;;;;23.10;17.20;;;;;;;2.88;91.15;98762.38;213764;1273;61329;-73
2023/01/16 17:07:30;;;;;;;23.60;17.60;;;;;;;2.93;91.23;98758.70;213727;1270;68330;-74
2023/01/16 17:12:23;;;;;;;21.30;17.50;;;;;;;2.96;91.27;98750.21;213710;1273;61499;-74
2023/01/16 17:17:19;;;;;;;25.60;17.30;;;;;;;3.00;91.21;98741.36;213819;1269;61935;-74
2023/01/16 17:22:12;;;;;;;21.00;16.90;;;;;;;3.03;91.29;98736.29;213553;1275;72482;-74
2023/01/16 17:27:10;;;;;;;21.90;16.30;;;;;;;3.06;91.23;98733.39;213751;1270;61291;-74
2023/01/16 17:32:05;;;;;;;23.20;17.60;;;;;;;3.08;91.11;98725.73;213835;1270;66248;-74
2023/01/16 17:36:59;;;;;;;20.80;15.10;;;;;;;3.10;91.16;98713.95;213785;1270;61326;-74
2023/01/16 17:47:04;;;;;;;19.10;13.60;;;;;;;3.15;91.00;98689.19;213753;1275;70982;-74
2023/01/16 17:51:57;;;;;;;23.80;15.50;;;;;;;3.17;91.07;98675.36;213797;1274;61403;-74
2023/01/16 17:56:50;;;;;;;20.50;16.20;;;;;;;3.19;90.82;98667.85;213799;1273;61295;-74
2023/01/16 18:01:42;;;;;;;17.10;13.40;;;;;;;3.21;90.81;98657.96;213884;1270;61783;-74
2023/01/16 18:06:41;;;;;;;17.80;13.80;;;;;;;3.23;90.67;98646.68;213589;1270;75575;-74
2023/01/16 18:22:01;;;;;;;22.20;13.80;;;;;;;3.30;90.75;98623.31;213676;1270;67247;-74
2023/01/16 18:26:54;;;;;;;15.70;12.50;;;;;;;3.32;90.51;98617.52;213663;1273;61332;-73
2023/01/16 18:36:54;;;;;;;16.50;12.50;;;;;;;3.36;90.56;98605.91;213590;1273;72482;-74
2023/01/16 19:02:54;;;;;;;14.90;11.60;;;;;;;3.44;90.53;98558.58;212467;1276;72701;-74
2023/01/16 19:07:52;;;;;;;14.50;11.80;;;;;;;3.46;90.48;98547.11;212305;1279;61368;-74
2023/01/16 19:12:46;;;;;;;15.10;11.30;;;;;;;3.48;90.36;98541.30;212140;1277;67863;-74
2023/01/16 19:17:39;;;;;;;14.90;10.90;;;;;;;3.48;90.61;98537.20;212150;1276;61275;-74
2023/01/16 19:22:32;;;;;;;12.80;11.30;;;;;;;3.50;90.50;98534.99;213442;1273;74096;-74
2023/01/16 19:27:25;;;;;;;13.90;10.80;;;;;;;3.51;90.50;98518.91;213361;1273;61106;-74
2023/01/16 19:32:18;;;;;;;15.50;11.80;;;;;;;3.53;90.49;98512.08;213346;1274;61313;-74
2023/01/16 19:37:11;;;;;;;16.30;12.90;;;;;;;3.55;90.68;98504.71;213529;1272;61369;-74
2023/01/16 19:47:16;;;;;;;17.10;12.50;;;;;;;3.56;90.50;98475.78;213639;1273;76216;-75
2023/01/16 19:52:10;;;;;;;13.90;11.70;;;;;;;3.57;90.42;98465.86;213564;1270;72469;-74
2023/01/16 19:57:04;;;;;;;15.90;12.00;;;;;;;3.59;90.43;98456.11;213566;1273;61322;-74
2023/01/16 20:02:03;;;;;;;15.30;12.00;;;;;;;3.59;90.32;98448.23;213579;1273;66945;-74
2023/01/16 20:06:56;;;;;;;16.20;12.50;;;;;;;3.60;90.53;98433.67;213562;1270;61473;-75
2023/01/16 20:17:01;;;;;;;15.30;11.80;;;;;;;3.63;90.48;98418.10;213610;1270;71511;-74
2023/01/16 20:21:55;;;;;;;16.50;12.60;;;;;;;3.63;90.51;98409.21;213762;1273;61258;-74
2023/01/16 20:26:50;;;;;;;17.70;13.50;;;;;;;3.63;90.83;98398.05;213575;1271;67582;-75
2023/01/16 20:31:44;;;;;;;18.20;13.80;;;;;;;3.63;90.80;98390.70;213543;1273;61323;-74
2023/01/16 20:36:37;;;;;;;18.30;13.40;;;;;;;3.61;91.01;98384.17;213591;1273;74461;-75
2023/01/16 20:46:40;;;;;;;20.20;13.90;;;;;;;3.57;91.34;98361.02;213631;1273;61386;-74
2023/01/16 20:51:33;;;;;;;20.10;14.70;;;;;;;3.57;91.26;98350.23;213341;1270;61399;-74
2023/01/16 20:56:26;;;;;;;17.30;13.10;;;;;;;3.55;91.39;98342.52;213578;1273;61344;-74
2023/01/16 21:01:19;;;;;;;18.80;15.10;;;;;;;3.54;91.37;98329.31;213560;1270;75821;-74
2023/01/16 21:06:13;;;;;;;20.30;15.20;;;;;;;3.54;91.48;98319.72;213532;1275;71279;-74
2023/01/16 21:14:09;;;;;;;20.90;15.80;;;;;;;3.54;91.48;98307.21;213639;1273;61425;-74
2023/01/16 21:26:40;;;;;;;13.80;10.40;;;;;;;3.52;91.79;98281.33;213564;1273;72702;-74
2023/01/16 21:31:34;;;;;;;18.10;14.20;;;;;;;3.52;91.95;98279.11;213504;1272;73103;-74
2023/01/16 21:36:27;;;;;;;20.40;15.20;;;;;;;3.51;91.88;98271.57;213515;1273;61399;-74
2023/01/16 21:41:20;;;;;;;19.30;15.00;;;;;;;3.52;92.21;98266.60;213578;1273;61281;-74
2023/01/16 21:46:28;;;;;;;23.00;15.70;;;;;;;3.51;91.98;98256.67;213466;1270;61263;-74
2023/01/16 21:51:21;;;;;;;20.60;16.10;;;;;;;3.51;92.20;98252.05;213480;1273;75860;-74
2023/01/16 21:56:14;;;;;;;22.30;16.30;;;;;;;3.51;92.25;98246.05;213522;1273;73777;-73
2023/01/16 22:01:08;;;;;;;22.30;16.10;;;;;;;3.51;92.55;98239.54;213479;1270;61854;-74
2023/01/16 22:06:07;;;;;;;21.90;16.10;;;;;;;3.50;92.52;98230.27;213554;1270;66948;-74
2023/01/16 22:21:39;;;;;;;20.60;15.50;;;;;;;3.49;92.67;98210.23;213720;1273;73234;-74
2023/01/16 22:26:31;;;;;;;21.00;15.80;;;;;;;3.48;92.52;98206.12;213829;1270;61278;-73
2023/01/16 22:31:24;;;;;;;19.50;14.90;;;;;;;3.47;92.64;98201.15;213692;1271;61295;-74
2023/01/16 22:36:17;;;;;;;22.20;15.30;;;;;;;3.46;92.72;98194.13;213792;1270;61262;-73
2023/01/16 22:41:17;;;;;;;22.50;16.70;;;;;;;3.44;92.55;98189.83;213837;1270;61400;-74
2023/01/16 22:46:23;;;;;;;20.40;15.70;;;;;;;3.44;92.86;98184.88;213546;1273;72563;-74
2023/01/16 22:51:17;;;;;;;21.50;14.30;;;;;;;3.41;92.54;98178.35;213255;1270;61368;-73
2023/01/16 22:56:10;;;;;;;16.90;13.80;;;;;;;3.39;92.61;98177.15;213700;1270;66783;-73
2023/01/16 23:01:30;;;;;;;17.80;14.00;;;;;;;3.37;92.50;98172.34;213508;1268;61363;-74
2023/01/16 23:06:25;;;;;;;15.40;10.70;;;;;;;3.35;92.70;98166.34;213613;1270;74696;-74
2023/01/16 23:11:24;;;;;;;13.90;11.50;;;;;;;3.31;92.46;98161.01;213582;1270;72414;-74
2023/01/16 23:16:17;;;;;;;13.30;10.20;;;;;;;3.28;92.65;98154.48;213304;1272;420950;-73
2023/01/16 23:21:10;;;;;;;17.00;12.40;;;;;;;3.25;92.64;98148.98;213618;1272;61304;-74
2023/01/16 23:26:12;;;;;;;14.40;10.90;;;;;;;3.23;92.45;98140.59;213706;1273;61279;-73
2023/01/16 23:31:13;;;;;;;14.40;11.90;;;;;;;3.20;92.54;98133.20;213588;1273;73383;-73
2023/01/16 23:36:12;;;;;;;14.70;11.00;;;;;;;3.19;92.43;98126.70;213644;1270;72599;-74
2023/01/16 23:41:07;;;;;;;17.00;13.10;;;;;;;3.18;92.63;98121.56;213541;1270;61304;-74
2023/01/16 23:46:00;;;;;;;14.50;12.30;;;;;;;3.18;92.64;98113.18;213675;1273;68015;-73
2023/01/16 23:50:53;;;;;;;15.20;11.90;;;;;;;3.16;92.52;98109.05;213629;1271;61405;-73
2023/01/16 23:55:46;;;;;;;15.70;12.40;;;;;;;3.15;92.63;98095.54;213539;1273;73772;-73
